sensor_id;sensor_type;location;lat;lon;timestamp;P1;durP1;ratioP1;P2;durP2;ratioP2
48975;SDS011;34791;52.752;8.346;2023-08-31T00:02:12;15.30;;;7.27;;
48975;SDS011;34791;52.752;8.346;2023-08-31T00:04:37;16.67;;;6.93;;
48975;SDS011;34791;52.752;8.346;2023-08-31T00:07:03;14.07;;;7.33;;
48975;SDS011;34791;52.752;8.346;2023-08-31T00:09:28;13.70;;;7.37;;
48975;SDS011;34791;52.752;8.346;2023-08-31T00:11:54;16.40;;;7.47;;
48975;SDS011;34791;52.752;8.346;2023-08-31T00:14:19;14.67;;;7.27;;
48975;SDS011;34791;52.752;8.346;2023-08-31T00:16:45;16.83;;;7.30;;
48975;SDS011;34791;52.752;8.346;2023-08-31T00:19:13;12.93;;;7.00;;
48975;SDS011;34791;52.752;8.346;2023-08-31T00:21:39;16.33;;;7.77;;
48975;SDS011;34791;52.752;8.346;2023-08-31T00:24:04;15.63;;;7.17;;
48975;SDS011;34791;52.752;8.346;2023-08-31T00:26:30;15.60;;;7.00;;
48975;SDS011;34791;52.752;8.346;2023-08-31T00:28:56;16.00;;;7.40;;
48975;SDS011;34791;52.752;8.346;2023-08-31T00:31:21;17.47;;;7.50;;
48975;SDS011;34791;52.752;8.346;2023-08-31T00:33:46;16.30;;;7.73;;
48975;SDS011;34791;52.752;8.346;2023-08-31T00:36:13;19.40;;;8.00;;
48975;SDS011;34791;52.752;8.346;2023-08-31T00:38:38;19.00;;;7.80;;
48975;SDS011;34791;52.752;8.346;2023-08-31T00:41:04;14.77;;;7.90;;
48975;SDS011;34791;52.752;8.346;2023-08-31T00:43:29;15.37;;;7.67;;
48975;SDS011;34791;52.752;8.346;2023-08-31T00:45:54;18.90;;;7.87;;
48975;SDS011;34791;52.752;8.346;2023-08-31T00:48:24;20.93;;;8.23;;
48975;SDS011;34791;52.752;8.346;2023-08-31T00:50:49;16.60;;;8.17;;
48975;SDS011;34791;52.752;8.346;2023-08-31T00:53:15;16.03;;;8.40;;
48975;SDS011;34791;52.752;8.346;2023-08-31T00:55:40;19.10;;;8.13;;
48975;SDS011;34791;52.752;8.346;2023-08-31T00:58:09;19.33;;;9.10;;
48975;SDS011;34791;52.752;8.346;2023-08-31T01:06:13;20.33;;;9.70;;
48975;SDS011;34791;52.752;8.346;2023-08-31T01:11:31;19.13;;;10.10;;
48975;SDS011;34791;52.752;8.346;2023-08-31T01:14:02;18.13;;;9.20;;
48975;SDS011;34791;52.752;8.346;2023-08-31T01:16:33;17.30;;;7.33;;
48975;SDS011;34791;52.752;8.346;2023-08-31T01:19:00;20.47;;;8.60;;
48975;SDS011;34791;52.752;8.346;2023-08-31T01:21:30;20.07;;;8.40;;
48975;SDS011;34791;52.752;8.346;2023-08-31T01:24:00;19.60;;;8.33;;
48975;SDS011;34791;52.752;8.346;2023-08-31T01:26:26;18.53;;;8.37;;
48975;SDS011;34791;52.752;8.346;2023-08-31T01:28:52;19.77;;;8.20;;
48975;SDS011;34791;52.752;8.346;2023-08-31T01:31:19;16.63;;;8.10;;
48975;SDS011;34791;52.752;8.346;2023-08-31T01:33:45;16.00;;;8.30;;
48975;SDS011;34791;52.752;8.346;2023-08-31T01:38:52;15.77;;;7.67;;
48975;SDS011;34791;52.752;8.346;2023-08-31T01:41:20;19.97;;;8.20;;
48975;SDS011;34791;52.752;8.346;2023-08-31T01:43:46;19.57;;;7.83;;
48975;SDS011;34791;52.752;8.346;2023-08-31T01:46:12;16.90;;;7.43;;
48975;SDS011;34791;52.752;8.346;2023-08-31T01:48:38;13.53;;;6.37;;
48975;SDS011;34791;52.752;8.346;2023-08-31T01:51:04;15.00;;;7.67;;
48975;SDS011;34791;52.752;8.346;2023-08-31T01:53:30;16.53;;;7.03;;
48975;SDS011;34791;52.752;8.346;2023-08-31T01:55:55;25.50;;;8.80;;
48975;SDS011;34791;52.752;8.346;2023-08-31T01:58:21;20.47;;;7.03;;
48975;SDS011;34791;52.752;8.346;2023-08-31T02:00:47;15.97;;;7.50;;
48975;SDS011;34791;52.752;8.346;2023-08-31T02:03:13;15.37;;;7.10;;
48975;SDS011;34791;52.752;8.346;2023-08-31T02:05:38;18.87;;;7.53;;
48975;SDS011;34791;52.752;8.346;2023-08-31T02:08:03;20.53;;;8.23;;
48975;SDS011;34791;52.752;8.346;2023-08-31T02:10:28;18.67;;;8.40;;
48975;SDS011;34791;52.752;8.346;2023-08-31T02:12:54;16.87;;;8.13;;
48975;SDS011;34791;52.752;8.346;2023-08-31T02:15:20;18.27;;;8.87;;
48975;SDS011;34791;52.752;8.346;2023-08-31T02:17:45;17.80;;;9.47;;
48975;SDS011;34791;52.752;8.346;2023-08-31T02:20:10;22.23;;;9.60;;
48975;SDS011;34791;52.752;8.346;2023-08-31T02:22:36;20.27;;;9.93;;
48975;SDS011;34791;52.752;8.346;2023-08-31T02:25:01;21.97;;;9.70;;
48975;SDS011;34791;52.752;8.346;2023-08-31T02:27:27;18.00;;;9.53;;
48975;SDS011;34791;52.752;8.346;2023-08-31T02:29:52;25.43;;;10.13;;
48975;SDS011;34791;52.752;8.346;2023-08-31T02:32:17;20.50;;;8.97;;
48975;SDS011;34791;52.752;8.346;2023-08-31T02:34:42;25.57;;;9.87;;
48975;SDS011;34791;52.752;8.346;2023-08-31T02:37:08;23.30;;;9.70;;
48975;SDS011;34791;52.752;8.346;2023-08-31T02:39:33;24.23;;;10.70;;
48975;SDS011;34791;52.752;8.346;2023-08-31T02:41:58;24.63;;;10.27;;
48975;SDS011;34791;52.752;8.346;2023-08-31T02:44:23;19.40;;;10.10;;
48975;SDS011;34791;52.752;8.346;2023-08-31T02:46:48;21.17;;;9.83;;
48975;SDS011;34791;52.752;8.346;2023-08-31T02:49:14;21.23;;;10.23;;
48975;SDS011;34791;52.752;8.346;2023-08-31T02:51:39;22.77;;;10.87;;
48975;SDS011;34791;52.752;8.346;2023-08-31T02:54:04;24.00;;;11.87;;
48975;SDS011;34791;52.752;8.346;2023-08-31T02:56:29;25.40;;;11.40;;
48975;SDS011;34791;52.752;8.346;2023-08-31T02:58:55;25.60;;;11.13;;
48975;SDS011;34791;52.752;8.346;2023-08-31T03:01:20;20.57;;;9.97;;
48975;SDS011;34791;52.752;8.346;2023-08-31T03:03:45;27.87;;;11.33;;
48975;SDS011;34791;52.752;8.346;2023-08-31T03:06:11;22.43;;;9.37;;
48975;SDS011;34791;52.752;8.346;2023-08-31T03:08:36;20.13;;;9.67;;
48975;SDS011;34791;52.752;8.346;2023-08-31T03:11:02;22.30;;;10.27;;
48975;SDS011;34791;52.752;8.346;2023-08-31T03:13:27;20.77;;;10.00;;
48975;SDS011;34791;52.752;8.346;2023-08-31T03:15:53;18.20;;;8.73;;
48975;SDS011;34791;52.752;8.346;2023-08-31T03:18:18;17.13;;;9.00;;
48975;SDS011;34791;52.752;8.346;2023-08-31T03:20:43;25.77;;;10.10;;
48975;SDS011;34791;52.752;8.346;2023-08-31T03:23:09;20.33;;;9.10;;
48975;SDS011;34791;52.752;8.346;2023-08-31T03:25:36;18.20;;;8.87;;
48975;SDS011;34791;52.752;8.346;2023-08-31T03:28:01;23.10;;;9.60;;
48975;SDS011;34791;52.752;8.346;2023-08-31T03:30:26;20.57;;;10.87;;
48975;SDS011;34791;52.752;8.346;2023-08-31T03:32:51;26.57;;;10.67;;
48975;SDS011;34791;52.752;8.346;2023-08-31T03:35:17;22.47;;;10.20;;
48975;SDS011;34791;52.752;8.346;2023-08-31T03:37:42;27.23;;;10.93;;
48975;SDS011;34791;52.752;8.346;2023-08-31T03:40:07;22.43;;;11.37;;
48975;SDS011;34791;52.752;8.346;2023-08-31T03:42:33;22.17;;;10.83;;
48975;SDS011;34791;52.752;8.346;2023-08-31T03:44:59;21.87;;;10.60;;
48975;SDS011;34791;52.752;8.346;2023-08-31T03:47:24;23.20;;;10.80;;
48975;SDS011;34791;52.752;8.346;2023-08-31T03:49:49;20.50;;;9.33;;
48975;SDS011;34791;52.752;8.346;2023-08-31T03:52:15;22.43;;;10.83;;
48975;SDS011;34791;52.752;8.346;2023-08-31T03:54:40;18.73;;;10.37;;
48975;SDS011;34791;52.752;8.346;2023-08-31T03:57:05;20.97;;;10.47;;
48975;SDS011;34791;52.752;8.346;2023-08-31T03:59:30;19.20;;;10.47;;
48975;SDS011;34791;52.752;8.346;2023-08-31T04:01:56;27.00;;;11.40;;
48975;SDS011;34791;52.752;8.346;2023-08-31T04:04:21;20.57;;;10.43;;
48975;SDS011;34791;52.752;8.346;2023-08-31T04:06:46;17.97;;;10.10;;
48975;SDS011;34791;52.752;8.346;2023-08-31T04:09:11;20.33;;;10.07;;
48975;SDS011;34791;52.752;8.346;2023-08-31T04:11:37;18.00;;;9.80;;
48975;SDS011;34791;52.752;8.346;2023-08-31T04:14:02;23.80;;;10.73;;
48975;SDS011;34791;52.752;8.346;2023-08-31T04:16:27;24.93;;;10.50;;
48975;SDS011;34791;52.752;8.346;2023-08-31T04:18:54;23.43;;;10.07;;
48975;SDS011;34791;52.752;8.346;2023-08-31T04:21:19;23.20;;;10.43;;
48975;SDS011;34791;52.752;8.346;2023-08-31T04:23:44;19.40;;;9.77;;
48975;SDS011;34791;52.752;8.346;2023-08-31T04:26:11;20.23;;;9.23;;
48975;SDS011;34791;52.752;8.346;2023-08-31T04:28:37;20.60;;;9.27;;
48975;SDS011;34791;52.752;8.346;2023-08-31T04:31:04;23.17;;;9.60;;
48975;SDS011;34791;52.752;8.346;2023-08-31T04:33:29;21.10;;;9.97;;
48975;SDS011;34791;52.752;8.346;2023-08-31T04:35:55;19.13;;;9.30;;
48975;SDS011;34791;52.752;8.346;2023-08-31T04:38:20;17.77;;;9.27;;
48975;SDS011;34791;52.752;8.346;2023-08-31T04:40:45;18.60;;;9.83;;
48975;SDS011;34791;52.752;8.346;2023-08-31T04:43:10;18.77;;;10.27;;
48975;SDS011;34791;52.752;8.346;2023-08-31T04:45:35;18.63;;;10.20;;
48975;SDS011;34791;52.752;8.346;2023-08-31T04:48:01;22.10;;;10.50;;
48975;SDS011;34791;52.752;8.346;2023-08-31T04:50:26;21.80;;;10.23;;
48975;SDS011;34791;52.752;8.346;2023-08-31T04:52:51;22.33;;;10.70;;
48975;SDS011;34791;52.752;8.346;2023-08-31T04:55:16;18.17;;;9.40;;
48975;SDS011;34791;52.752;8.346;2023-08-31T04:57:42;16.17;;;9.53;;
48975;SDS011;34791;52.752;8.346;2023-08-31T05:00:07;19.43;;;9.87;;
48975;SDS011;34791;52.752;8.346;2023-08-31T05:02:37;13.80;;;8.90;;
48975;SDS011;34791;52.752;8.346;2023-08-31T05:05:02;18.17;;;9.60;;
48975;SDS011;34791;52.752;8.346;2023-08-31T05:07:28;18.00;;;9.70;;
48975;SDS011;34791;52.752;8.346;2023-08-31T05:09:53;14.00;;;8.90;;
48975;SDS011;34791;52.752;8.346;2023-08-31T05:12:18;15.80;;;9.43;;
48975;SDS011;34791;52.752;8.346;2023-08-31T05:14:44;16.80;;;9.00;;
48975;SDS011;34791;52.752;8.346;2023-08-31T05:17:09;15.73;;;9.07;;
48975;SDS011;34791;52.752;8.346;2023-08-31T05:19:34;16.47;;;8.93;;
48975;SDS011;34791;52.752;8.346;2023-08-31T05:21:59;14.67;;;9.40;;
48975;SDS011;34791;52.752;8.346;2023-08-31T05:24:24;17.77;;;9.80;;
48975;SDS011;34791;52.752;8.346;2023-08-31T05:26:50;14.50;;;10.00;;
48975;SDS011;34791;52.752;8.346;2023-08-31T05:29:15;15.03;;;8.90;;
48975;SDS011;34791;52.752;8.346;2023-08-31T05:31:41;16.23;;;9.40;;
48975;SDS011;34791;52.752;8.346;2023-08-31T05:34:06;16.87;;;10.13;;
48975;SDS011;34791;52.752;8.346;2023-08-31T05:36:32;15.17;;;9.07;;
48975;SDS011;34791;52.752;8.346;2023-08-31T05:38:57;16.57;;;10.53;;
48975;SDS011;34791;52.752;8.346;2023-08-31T05:41:22;16.30;;;10.00;;
48975;SDS011;34791;52.752;8.346;2023-08-31T05:43:47;16.43;;;9.20;;
48975;SDS011;34791;52.752;8.346;2023-08-31T05:46:13;15.17;;;9.87;;
48975;SDS011;34791;52.752;8.346;2023-08-31T05:48:38;17.40;;;10.10;;
48975;SDS011;34791;52.752;8.346;2023-08-31T05:51:03;15.07;;;9.30;;
48975;SDS011;34791;52.752;8.346;2023-08-31T05:53:32;16.73;;;10.10;;
48975;SDS011;34791;52.752;8.346;2023-08-31T05:55:58;19.90;;;11.13;;
48975;SDS011;34791;52.752;8.346;2023-08-31T05:58:33;15.98;;;10.23;;
48975;SDS011;34791;52.752;8.346;2023-08-31T06:00:59;17.00;;;10.03;;
48975;SDS011;34791;52.752;8.346;2023-08-31T06:03:24;11.17;;;7.70;;
48975;SDS011;34791;52.752;8.346;2023-08-31T06:05:49;11.03;;;7.07;;
48975;SDS011;34791;52.752;8.346;2023-08-31T06:08:15;10.85;;;6.93;;
48975;SDS011;34791;52.752;8.346;2023-08-31T06:10:40;13.95;;;6.60;;
48975;SDS011;34791;52.752;8.346;2023-08-31T06:13:05;10.40;;;6.90;;
48975;SDS011;34791;52.752;8.346;2023-08-31T06:15:31;10.80;;;7.57;;
48975;SDS011;34791;52.752;8.346;2023-08-31T06:17:56;12.05;;;7.03;;
48975;SDS011;34791;52.752;8.346;2023-08-31T06:20:21;12.25;;;7.53;;
48975;SDS011;34791;52.752;8.346;2023-08-31T06:22:47;11.25;;;7.63;;
48975;SDS011;34791;52.752;8.346;2023-08-31T06:25:12;11.60;;;7.65;;
48975;SDS011;34791;52.752;8.346;2023-08-31T06:27:41;15.82;;;8.20;;
48975;SDS011;34791;52.752;8.346;2023-08-31T06:30:07;13.05;;;8.60;;
48975;SDS011;34791;52.752;8.346;2023-08-31T06:32:33;12.00;;;7.80;;
48975;SDS011;34791;52.752;8.346;2023-08-31T06:34:59;15.02;;;8.40;;
48975;SDS011;34791;52.752;8.346;2023-08-31T06:37:24;11.85;;;7.55;;
48975;SDS011;34791;52.752;8.346;2023-08-31T06:39:49;10.02;;;6.45;;
48975;SDS011;34791;52.752;8.346;2023-08-31T06:42:14;10.55;;;6.05;;
48975;SDS011;34791;52.752;8.346;2023-08-31T06:44:39;13.02;;;6.50;;
48975;SDS011;34791;52.752;8.346;2023-08-31T06:47:05;12.15;;;7.20;;
48975;SDS011;34791;52.752;8.346;2023-08-31T06:49:30;13.45;;;7.47;;
48975;SDS011;34791;52.752;8.346;2023-08-31T06:51:58;14.13;;;8.15;;
48975;SDS011;34791;52.752;8.346;2023-08-31T06:54:23;12.43;;;8.82;;
48975;SDS011;34791;52.752;8.346;2023-08-31T06:56:48;14.63;;;10.13;;
48975;SDS011;34791;52.752;8.346;2023-08-31T06:59:13;17.80;;;10.23;;
48975;SDS011;34791;52.752;8.346;2023-08-31T07:01:38;22.87;;;11.13;;
48975;SDS011;34791;52.752;8.346;2023-08-31T07:04:04;16.73;;;10.77;;
48975;SDS011;34791;52.752;8.346;2023-08-31T07:06:29;18.83;;;11.37;;
48975;SDS011;34791;52.752;8.346;2023-08-31T07:08:54;18.87;;;12.23;;
48975;SDS011;34791;52.752;8.346;2023-08-31T07:11:19;22.33;;;12.47;;
48975;SDS011;34791;52.752;8.346;2023-08-31T07:13:45;20.37;;;13.53;;
48975;SDS011;34791;52.752;8.346;2023-08-31T07:16:10;21.03;;;13.37;;
48975;SDS011;34791;52.752;8.346;2023-08-31T07:18:36;17.10;;;11.37;;
48975;SDS011;34791;52.752;8.346;2023-08-31T07:21:01;21.47;;;13.13;;
48975;SDS011;34791;52.752;8.346;2023-08-31T07:23:27;19.40;;;12.10;;
48975;SDS011;34791;52.752;8.346;2023-08-31T07:25:52;20.00;;;12.90;;
48975;SDS011;34791;52.752;8.346;2023-08-31T07:28:17;17.37;;;11.33;;
48975;SDS011;34791;52.752;8.346;2023-08-31T07:30:42;20.17;;;11.40;;
48975;SDS011;34791;52.752;8.346;2023-08-31T07:33:08;17.60;;;10.63;;
48975;SDS011;34791;52.752;8.346;2023-08-31T07:35:33;15.63;;;8.82;;
48975;SDS011;34791;52.752;8.346;2023-08-31T07:37:58;14.40;;;9.35;;
48975;SDS011;34791;52.752;8.346;2023-08-31T07:40:24;13.75;;;9.35;;
48975;SDS011;34791;52.752;8.346;2023-08-31T07:42:50;13.57;;;9.00;;
48975;SDS011;34791;52.752;8.346;2023-08-31T07:45:16;14.18;;;8.70;;
48975;SDS011;34791;52.752;8.346;2023-08-31T07:47:41;13.32;;;9.45;;
48975;SDS011;34791;52.752;8.346;2023-08-31T07:50:06;13.05;;;9.00;;
48975;SDS011;34791;52.752;8.346;2023-08-31T07:52:32;14.05;;;8.82;;
48975;SDS011;34791;52.752;8.346;2023-08-31T07:54:57;15.68;;;9.35;;
48975;SDS011;34791;52.752;8.346;2023-08-31T07:57:22;13.25;;;8.13;;
48975;SDS011;34791;52.752;8.346;2023-08-31T07:59:47;13.23;;;7.80;;
48975;SDS011;34791;52.752;8.346;2023-08-31T08:02:13;13.00;;;8.18;;
48975;SDS011;34791;52.752;8.346;2023-08-31T08:04:38;12.55;;;7.65;;
48975;SDS011;34791;52.752;8.346;2023-08-31T08:07:03;11.75;;;7.47;;
48975;SDS011;34791;52.752;8.346;2023-08-31T08:09:29;13.18;;;7.57;;
48975;SDS011;34791;52.752;8.346;2023-08-31T08:11:55;14.55;;;6.70;;
48975;SDS011;34791;52.752;8.346;2023-08-31T08:14:20;9.38;;;5.50;;
48975;SDS011;34791;52.752;8.346;2023-08-31T08:16:45;7.50;;;4.70;;
48975;SDS011;34791;52.752;8.346;2023-08-31T08:19:10;9.43;;;5.13;;
48975;SDS011;34791;52.752;8.346;2023-08-31T08:21:36;7.93;;;5.07;;
48975;SDS011;34791;52.752;8.346;2023-08-31T08:24:01;7.13;;;4.22;;
48975;SDS011;34791;52.752;8.346;2023-08-31T08:26:26;10.43;;;4.97;;
48975;SDS011;34791;52.752;8.346;2023-08-31T08:28:52;7.43;;;3.92;;
48975;SDS011;34791;52.752;8.346;2023-08-31T08:31:17;7.88;;;4.07;;
48975;SDS011;34791;52.752;8.346;2023-08-31T08:33:42;9.63;;;4.55;;
48975;SDS011;34791;52.752;8.346;2023-08-31T08:36:07;8.32;;;3.80;;
48975;SDS011;34791;52.752;8.346;2023-08-31T08:38:33;7.45;;;3.58;;
48975;SDS011;34791;52.752;8.346;2023-08-31T08:41:03;7.90;;;3.67;;
48975;SDS011;34791;52.752;8.346;2023-08-31T08:43:29;6.95;;;3.55;;
48975;SDS011;34791;52.752;8.346;2023-08-31T08:45:54;5.88;;;2.97;;
48975;SDS011;34791;52.752;8.346;2023-08-31T08:48:21;8.52;;;2.50;;
48975;SDS011;34791;52.752;8.346;2023-08-31T08:50:47;7.13;;;2.95;;
48975;SDS011;34791;52.752;8.346;2023-08-31T08:53:13;5.10;;;2.58;;
48975;SDS011;34791;52.752;8.346;2023-08-31T08:55:40;4.18;;;2.30;;
48975;SDS011;34791;52.752;8.346;2023-08-31T08:58:05;5.40;;;2.35;;
48975;SDS011;34791;52.752;8.346;2023-08-31T09:00:31;7.22;;;2.47;;
48975;SDS011;34791;52.752;8.346;2023-08-31T09:02:57;4.60;;;2.30;;
48975;SDS011;34791;52.752;8.346;2023-08-31T09:05:23;7.32;;;2.40;;
48975;SDS011;34791;52.752;8.346;2023-08-31T09:07:59;6.35;;;2.30;;
48975;SDS011;34791;52.752;8.346;2023-08-31T09:10:30;7.07;;;1.80;;
48975;SDS011;34791;52.752;8.346;2023-08-31T09:12:58;4.13;;;1.50;;
48975;SDS011;34791;52.752;8.346;2023-08-31T09:15:24;4.45;;;1.77;;
48975;SDS011;34791;52.752;8.346;2023-08-31T09:17:50;5.97;;;1.70;;
48975;SDS011;34791;52.752;8.346;2023-08-31T09:20:16;5.65;;;1.70;;
48975;SDS011;34791;52.752;8.346;2023-08-31T09:22:44;5.38;;;1.92;;
48975;SDS011;34791;52.752;8.346;2023-08-31T09:25:15;5.72;;;1.90;;
48975;SDS011;34791;52.752;8.346;2023-08-31T09:27:40;4.57;;;1.65;;
48975;SDS011;34791;52.752;8.346;2023-08-31T09:30:09;6.38;;;1.75;;
48975;SDS011;34791;52.752;8.346;2023-08-31T09:32:35;6.40;;;2.05;;
48975;SDS011;34791;52.752;8.346;2023-08-31T09:35:01;6.28;;;2.00;;
48975;SDS011;34791;52.752;8.346;2023-08-31T09:37:28;3.70;;;1.30;;
48975;SDS011;34791;52.752;8.346;2023-08-31T09:39:54;4.55;;;1.40;;
48975;SDS011;34791;52.752;8.346;2023-08-31T09:42:19;7.72;;;1.50;;
48975;SDS011;34791;52.752;8.346;2023-08-31T09:44:45;5.85;;;1.65;;
48975;SDS011;34791;52.752;8.346;2023-08-31T09:47:11;4.93;;;1.65;;
48975;SDS011;34791;52.752;8.346;2023-08-31T09:49:38;5.55;;;1.90;;
48975;SDS011;34791;52.752;8.346;2023-08-31T09:52:04;3.17;;;1.17;;
48975;SDS011;34791;52.752;8.346;2023-08-31T09:54:31;4.75;;;1.27;;
48975;SDS011;34791;52.752;8.346;2023-08-31T09:56:57;4.10;;;0.90;;
48975;SDS011;34791;52.752;8.346;2023-08-31T09:59:24;2.72;;;0.70;;
48975;SDS011;34791;52.752;8.346;2023-08-31T10:01:50;5.65;;;1.05;;
48975;SDS011;34791;52.752;8.346;2023-08-31T10:04:15;5.20;;;1.08;;
48975;SDS011;34791;52.752;8.346;2023-08-31T10:06:42;3.33;;;1.00;;
48975;SDS011;34791;52.752;8.346;2023-08-31T10:09:07;4.18;;;1.10;;
48975;SDS011;34791;52.752;8.346;2023-08-31T10:11:37;3.83;;;0.90;;
48975;SDS011;34791;52.752;8.346;2023-08-31T10:14:03;3.03;;;0.82;;
48975;SDS011;34791;52.752;8.346;2023-08-31T10:16:29;5.03;;;0.88;;
48975;SDS011;34791;52.752;8.346;2023-08-31T10:18:55;2.63;;;0.70;;
48975;SDS011;34791;52.752;8.346;2023-08-31T10:21:20;3.03;;;0.70;;
48975;SDS011;34791;52.752;8.346;2023-08-31T10:23:46;2.92;;;0.77;;
48975;SDS011;34791;52.752;8.346;2023-08-31T10:26:14;3.42;;;0.85;;
48975;SDS011;34791;52.752;8.346;2023-08-31T10:28:47;4.03;;;0.57;;
48975;SDS011;34791;52.752;8.346;2023-08-31T10:31:16;2.55;;;0.68;;
48975;SDS011;34791;52.752;8.346;2023-08-31T10:36:38;0.97;;;0.50;;
48975;SDS011;34791;52.752;8.346;2023-08-31T10:39:16;2.97;;;0.77;;
48975;SDS011;34791;52.752;8.346;2023-08-31T10:41:42;3.67;;;0.60;;
48975;SDS011;34791;52.752;8.346;2023-08-31T10:44:20;2.85;;;0.82;;
48975;SDS011;34791;52.752;8.346;2023-08-31T10:46:46;5.75;;;0.90;;
48975;SDS011;34791;52.752;8.346;2023-08-31T10:51:43;2.03;;;0.65;;
48975;SDS011;34791;52.752;8.346;2023-08-31T10:54:24;2.85;;;0.50;;
48975;SDS011;34791;52.752;8.346;2023-08-31T10:56:53;3.70;;;1.40;;
48975;SDS011;34791;52.752;8.346;2023-08-31T10:59:20;2.95;;;0.50;;
48975;SDS011;34791;52.752;8.346;2023-08-31T11:01:58;3.42;;;0.70;;
48975;SDS011;34791;52.752;8.346;2023-08-31T11:04:30;1.85;;;0.50;;
48975;SDS011;34791;52.752;8.346;2023-08-31T11:07:17;2.58;;;0.80;;
48975;SDS011;34791;52.752;8.346;2023-08-31T11:09:43;4.68;;;1.10;;
48975;SDS011;34791;52.752;8.346;2023-08-31T11:12:09;2.42;;;0.77;;
48975;SDS011;34791;52.752;8.346;2023-08-31T11:14:35;3.45;;;1.00;;
48975;SDS011;34791;52.752;8.346;2023-08-31T11:17:00;3.15;;;0.93;;
48975;SDS011;34791;52.752;8.346;2023-08-31T11:19:26;2.22;;;0.60;;
48975;SDS011;34791;52.752;8.346;2023-08-31T11:21:52;3.25;;;0.80;;
48975;SDS011;34791;52.752;8.346;2023-08-31T11:24:18;2.70;;;0.60;;
48975;SDS011;34791;52.752;8.346;2023-08-31T11:26:47;2.78;;;0.70;;
48975;SDS011;34791;52.752;8.346;2023-08-31T11:29:12;5.15;;;0.73;;
48975;SDS011;34791;52.752;8.346;2023-08-31T11:31:38;5.32;;;0.80;;
48975;SDS011;34791;52.752;8.346;2023-08-31T11:34:07;2.17;;;0.63;;
48975;SDS011;34791;52.752;8.346;2023-08-31T11:36:32;3.88;;;0.90;;
48975;SDS011;34791;52.752;8.346;2023-08-31T11:38:58;4.25;;;0.88;;
48975;SDS011;34791;52.752;8.346;2023-08-31T11:41:23;3.33;;;0.95;;
48975;SDS011;34791;52.752;8.346;2023-08-31T11:43:48;3.92;;;0.90;;
48975;SDS011;34791;52.752;8.346;2023-08-31T11:46:14;0.90;;;0.47;;
48975;SDS011;34791;52.752;8.346;2023-08-31T11:48:40;6.22;;;0.80;;
48975;SDS011;34791;52.752;8.346;2023-08-31T11:51:06;2.15;;;0.70;;
48975;SDS011;34791;52.752;8.346;2023-08-31T11:53:31;3.28;;;0.60;;
48975;SDS011;34791;52.752;8.346;2023-08-31T11:55:56;1.75;;;0.60;;
48975;SDS011;34791;52.752;8.346;2023-08-31T11:58:22;2.65;;;0.40;;
48975;SDS011;34791;52.752;8.346;2023-08-31T12:00:56;2.35;;;0.60;;
48975;SDS011;34791;52.752;8.346;2023-08-31T12:03:21;5.15;;;0.98;;
48975;SDS011;34791;52.752;8.346;2023-08-31T12:05:47;3.55;;;0.60;;
48975;SDS011;34791;52.752;8.346;2023-08-31T12:08:13;3.03;;;0.80;;
48975;SDS011;34791;52.752;8.346;2023-08-31T12:10:41;1.50;;;0.70;;
48975;SDS011;34791;52.752;8.346;2023-08-31T12:13:13;2.08;;;0.55;;
48975;SDS011;34791;52.752;8.346;2023-08-31T12:18:09;0.83;;;0.40;;
48975;SDS011;34791;52.752;8.346;2023-08-31T12:20:42;2.45;;;0.60;;
48975;SDS011;34791;52.752;8.346;2023-08-31T12:23:07;1.98;;;0.40;;
48975;SDS011;34791;52.752;8.346;2023-08-31T12:25:34;3.05;;;0.50;;
48975;SDS011;34791;52.752;8.346;2023-08-31T12:27:59;3.83;;;0.70;;
48975;SDS011;34791;52.752;8.346;2023-08-31T12:30:25;1.77;;;0.70;;
48975;SDS011;34791;52.752;8.346;2023-08-31T12:32:50;2.33;;;0.80;;
48975;SDS011;34791;52.752;8.346;2023-08-31T12:35:17;3.97;;;0.70;;
48975;SDS011;34791;52.752;8.346;2023-08-31T12:37:42;2.58;;;0.70;;
48975;SDS011;34791;52.752;8.346;2023-08-31T12:40:07;1.15;;;0.52;;
48975;SDS011;34791;52.752;8.346;2023-08-31T12:42:34;2.83;;;0.90;;
48975;SDS011;34791;52.752;8.346;2023-08-31T12:45:00;1.70;;;0.60;;
48975;SDS011;34791;52.752;8.346;2023-08-31T12:47:25;1.98;;;0.63;;
48975;SDS011;34791;52.752;8.346;2023-08-31T12:49:50;1.70;;;0.60;;
48975;SDS011;34791;52.752;8.346;2023-08-31T12:52:15;3.38;;;0.50;;
48975;SDS011;34791;52.752;8.346;2023-08-31T12:54:41;1.95;;;0.35;;
48975;SDS011;34791;52.752;8.346;2023-08-31T12:57:06;1.98;;;0.55;;
48975;SDS011;34791;52.752;8.346;2023-08-31T12:59:32;2.45;;;0.60;;
48975;SDS011;34791;52.752;8.346;2023-08-31T13:01:57;2.33;;;0.68;;
48975;SDS011;34791;52.752;8.346;2023-08-31T13:04:22;2.55;;;0.70;;
48975;SDS011;34791;52.752;8.346;2023-08-31T13:06:48;2.17;;;0.60;;
48975;SDS011;34791;52.752;8.346;2023-08-31T13:09:13;3.42;;;0.80;;
48975;SDS011;34791;52.752;8.346;2023-08-31T13:11:38;3.60;;;0.70;;
48975;SDS011;34791;52.752;8.346;2023-08-31T13:14:03;2.15;;;0.60;;
48975;SDS011;34791;52.752;8.346;2023-08-31T13:16:28;1.88;;;0.70;;
48975;SDS011;34791;52.752;8.346;2023-08-31T13:18:54;2.38;;;0.73;;
48975;SDS011;34791;52.752;8.346;2023-08-31T13:21:19;2.28;;;0.65;;
48975;SDS011;34791;52.752;8.346;2023-08-31T13:23:44;2.65;;;0.77;;
48975;SDS011;34791;52.752;8.346;2023-08-31T13:26:10;4.45;;;0.88;;
48975;SDS011;34791;52.752;8.346;2023-08-31T13:28:35;2.97;;;0.63;;
48975;SDS011;34791;52.752;8.346;2023-08-31T13:31:00;3.15;;;0.90;;
48975;SDS011;34791;52.752;8.346;2023-08-31T13:33:26;3.13;;;0.77;;
48975;SDS011;34791;52.752;8.346;2023-08-31T13:35:53;4.93;;;0.82;;
48975;SDS011;34791;52.752;8.346;2023-08-31T13:38:18;2.63;;;0.75;;
48975;SDS011;34791;52.752;8.346;2023-08-31T13:40:44;2.13;;;0.70;;
48975;SDS011;34791;52.752;8.346;2023-08-31T13:43:09;3.03;;;0.90;;
48975;SDS011;34791;52.752;8.346;2023-08-31T13:45:34;4.38;;;1.05;;
48975;SDS011;34791;52.752;8.346;2023-08-31T13:47:59;4.28;;;0.80;;
48975;SDS011;34791;52.752;8.346;2023-08-31T13:50:25;2.47;;;0.77;;
48975;SDS011;34791;52.752;8.346;2023-08-31T13:52:51;4.25;;;0.93;;
48975;SDS011;34791;52.752;8.346;2023-08-31T13:55:16;3.97;;;1.00;;
48975;SDS011;34791;52.752;8.346;2023-08-31T13:57:42;4.72;;;0.90;;
48975;SDS011;34791;52.752;8.346;2023-08-31T14:00:08;2.97;;;0.80;;
48975;SDS011;34791;52.752;8.346;2023-08-31T14:02:34;3.05;;;0.70;;
48975;SDS011;34791;52.752;8.346;2023-08-31T14:05:00;2.83;;;0.88;;
48975;SDS011;34791;52.752;8.346;2023-08-31T14:07:26;3.92;;;0.90;;
48975;SDS011;34791;52.752;8.346;2023-08-31T14:09:52;6.15;;;0.90;;
48975;SDS011;34791;52.752;8.346;2023-08-31T14:12:17;2.75;;;0.90;;
48975;SDS011;34791;52.752;8.346;2023-08-31T14:14:42;2.92;;;0.80;;
48975;SDS011;34791;52.752;8.346;2023-08-31T14:17:08;4.32;;;0.70;;
48975;SDS011;34791;52.752;8.346;2023-08-31T14:19:33;6.18;;;1.00;;
48975;SDS011;34791;52.752;8.346;2023-08-31T14:22:01;4.07;;;1.00;;
48975;SDS011;34791;52.752;8.346;2023-08-31T14:24:26;4.82;;;1.02;;
48975;SDS011;34791;52.752;8.346;2023-08-31T14:26:51;4.32;;;1.00;;
48975;SDS011;34791;52.752;8.346;2023-08-31T14:29:17;2.40;;;0.47;;
48975;SDS011;34791;52.752;8.346;2023-08-31T14:31:42;1.73;;;0.60;;
48975;SDS011;34791;52.752;8.346;2023-08-31T14:34:07;1.77;;;0.65;;
48975;SDS011;34791;52.752;8.346;2023-08-31T14:36:32;3.90;;;0.68;;
48975;SDS011;34791;52.752;8.346;2023-08-31T14:38:58;2.33;;;0.90;;
48975;SDS011;34791;52.752;8.346;2023-08-31T14:41:23;2.80;;;0.73;;
48975;SDS011;34791;52.752;8.346;2023-08-31T14:43:48;1.58;;;0.60;;
48975;SDS011;34791;52.752;8.346;2023-08-31T14:46:13;3.90;;;1.00;;
48975;SDS011;34791;52.752;8.346;2023-08-31T14:48:38;3.60;;;0.70;;
48975;SDS011;34791;52.752;8.346;2023-08-31T14:51:04;3.58;;;0.70;;